createdAt,value
2019-03-26T00:03:18.598Z,99.90
2019-03-26T00:06:42.693Z,99.90
2019-03-26T00:10:06.915Z,99.90
2019-03-26T00:13:31.288Z,99.90
2019-03-26T00:16:55.442Z,99.90
2019-03-26T00:20:19.510Z,99.90
2019-03-26T00:23:43.892Z,99.90
2019-03-26T00:27:08.116Z,99.90
2019-03-26T00:30:32.162Z,99.90
2019-03-26T00:33:56.082Z,99.90
2019-03-26T00:37:20.139Z,99.90
2019-03-26T00:40:44.134Z,99.90
2019-03-26T00:44:08.502Z,99.90
2019-03-26T00:47:32.554Z,99.90
2019-03-26T00:50:56.490Z,99.90
2019-03-26T00:54:20.562Z,99.90
2019-03-26T00:57:44.531Z,99.90
2019-03-26T01:01:09.957Z,99.90
2019-03-26T01:04:34.252Z,99.90
2019-03-26T01:07:58.232Z,99.90
2019-03-26T01:11:22.202Z,99.90
2019-03-26T01:14:46.096Z,99.90
2019-03-26T01:18:10.088Z,99.90
2019-03-26T01:21:34.855Z,99.90
2019-03-26T01:24:58.807Z,99.90
2019-03-26T01:28:22.718Z,99.90
2019-03-26T01:31:46.677Z,99.90
2019-03-26T01:35:10.719Z,99.90
2019-03-26T01:38:34.725Z,99.90
2019-03-26T01:41:58.677Z,99.90
2019-03-26T01:45:22.587Z,99.90
2019-03-26T01:48:47.025Z,99.90
2019-03-26T01:52:10.990Z,99.90
2019-03-26T01:55:35.330Z,99.90
2019-03-26T01:58:59.280Z,99.90
2019-03-26T02:02:23.257Z,99.90
2019-03-26T02:05:47.229Z,99.90
2019-03-26T02:09:11.174Z,99.90
2019-03-26T02:12:35.259Z,99.90
2019-03-26T02:15:59.697Z,99.90
2019-03-26T02:19:24.172Z,99.90
2019-03-26T02:22:48.073Z,99.90
2019-03-26T02:26:12.029Z,99.90
2019-03-26T02:29:36.041Z,99.90
2019-03-26T02:33:00.084Z,99.90
2019-03-26T02:36:24.185Z,99.90
2019-03-26T02:39:48.173Z,99.90
2019-03-26T02:43:12.209Z,99.90
2019-03-26T02:46:36.227Z,99.90
2019-03-26T02:50:00.560Z,99.90
2019-03-26T02:53:25.097Z,99.90
2019-03-26T02:56:49.089Z,99.90
2019-03-26T03:00:13.835Z,99.90
2019-03-26T03:03:37.939Z,99.90
2019-03-26T03:07:01.903Z,99.90
2019-03-26T03:10:26.018Z,99.90
2019-03-26T03:13:50.414Z,99.90
2019-03-26T03:17:14.387Z,99.90
2019-03-26T03:20:38.740Z,99.90
2019-03-26T03:24:02.884Z,99.90
2019-03-26T03:27:26.927Z,99.90
2019-03-26T03:30:50.991Z,99.90
2019-03-26T03:34:15.081Z,99.90
2019-03-26T03:37:39.079Z,99.90
2019-03-26T03:41:03.453Z,99.90
2019-03-26T03:44:28.149Z,99.90
2019-03-26T03:47:52.206Z,99.90
2019-03-26T03:51:19.639Z,99.90
2019-03-26T03:54:45.096Z,99.90
2019-03-26T03:58:09.061Z,99.90
2019-03-26T04:01:33.064Z,99.90
2019-03-26T04:04:57.027Z,99.90
2019-03-26T04:08:20.995Z,99.90
2019-03-26T04:11:44.917Z,99.90
2019-03-26T04:15:08.947Z,99.90
2019-03-26T04:18:32.850Z,99.90
2019-03-26T04:21:56.850Z,99.90
2019-03-26T04:25:20.946Z,99.90
2019-03-26T04:28:44.897Z,99.90
2019-03-26T04:32:08.931Z,99.90
2019-03-26T04:35:32.854Z,99.90
2019-03-26T04:38:56.907Z,99.90
2019-03-26T04:42:20.994Z,99.90
2019-03-26T04:45:45.068Z,99.90
2019-03-26T04:49:09.023Z,99.90
2019-03-26T04:52:32.955Z,99.90
2019-03-26T04:55:56.938Z,99.90
2019-03-26T04:59:20.906Z,99.90
2019-03-26T05:02:44.919Z,99.90
2019-03-26T05:06:08.840Z,99.90
2019-03-26T05:09:32.899Z,99.90
2019-03-26T05:12:56.859Z,99.90
2019-03-26T05:16:21.263Z,99.90
2019-03-26T05:19:45.233Z,99.90
2019-03-26T05:23:09.198Z,99.90
2019-03-26T05:26:33.614Z,99.90
2019-03-26T05:29:57.541Z,99.90
2019-03-26T05:33:21.491Z,99.90
2019-03-26T05:36:51.133Z,99.90
2019-03-26T05:40:11.288Z,99.90
2019-03-26T05:43:35.540Z,99.90
2019-03-26T05:47:01.834Z,99.90
2019-03-26T05:50:25.904Z,99.90
2019-03-26T05:53:49.859Z,99.90
2019-03-26T05:57:13.740Z,99.90
2019-03-26T06:00:37.688Z,99.90
2019-03-26T06:04:01.566Z,99.90
2019-03-26T06:07:26.834Z,99.90
2019-03-26T06:10:50.716Z,99.90
2019-03-26T06:14:14.797Z,99.90
2019-03-26T06:17:38.731Z,99.90
2019-03-26T06:21:02.947Z,99.90
2019-03-26T06:24:27.058Z,99.90
2019-03-26T06:27:51.402Z,99.90
2019-03-26T06:31:17.354Z,99.90
2019-03-26T06:34:41.465Z,99.90
2019-03-26T06:38:06.378Z,99.90
2019-03-26T06:41:30.259Z,99.90
2019-03-26T06:44:54.212Z,99.90
2019-03-26T06:48:18.061Z,99.90
2019-03-26T06:51:41.952Z,99.90
2019-03-26T06:55:07.059Z,99.90
2019-03-26T06:58:30.970Z,99.90
2019-03-26T07:01:55.229Z,99.90
2019-03-26T07:05:19.108Z,99.90
2019-03-26T07:08:44.039Z,99.90
2019-03-26T07:12:08.455Z,99.90
2019-03-26T07:15:32.359Z,99.90
2019-03-26T07:18:56.307Z,99.90
2019-03-26T07:22:20.284Z,99.90
2019-03-26T07:25:44.291Z,99.90
2019-03-26T07:29:08.232Z,99.90
2019-03-26T07:32:32.097Z,99.90
2019-03-26T07:35:56.038Z,99.90
2019-03-26T07:39:19.888Z,99.90
2019-03-26T07:42:43.813Z,99.90
2019-03-26T07:46:07.729Z,99.90
2019-03-26T07:49:31.767Z,99.90
2019-03-26T07:52:55.697Z,99.90
2019-03-26T07:56:19.613Z,99.90
2019-03-26T07:59:43.634Z,99.90
2019-03-26T08:03:08.144Z,99.90
2019-03-26T08:06:34.210Z,99.90
2019-03-26T08:10:01.811Z,99.90
2019-03-26T08:13:25.842Z,99.90
2019-03-26T08:16:49.757Z,99.90
2019-03-26T08:20:15.464Z,99.90
2019-03-26T08:23:39.951Z,99.90
2019-03-26T08:27:03.835Z,99.90
2019-03-26T08:30:27.794Z,99.90
2019-03-26T08:33:51.958Z,99.90
2019-03-26T08:37:15.957Z,99.90
2019-03-26T08:40:39.884Z,99.90
2019-03-26T08:44:03.906Z,99.90
2019-03-26T08:47:28.130Z,99.90
2019-03-26T08:50:52.727Z,99.90
2019-03-26T08:54:16.760Z,99.90
2019-03-26T08:57:40.846Z,99.90
2019-03-26T09:01:05.364Z,99.90
2019-03-26T09:04:29.335Z,99.90
2019-03-26T09:07:53.259Z,99.90
2019-03-26T09:11:17.241Z,99.90
2019-03-26T09:14:41.361Z,99.90
2019-03-26T09:18:05.309Z,99.90
2019-03-26T09:21:32.406Z,99.90
2019-03-26T09:24:57.006Z,99.90
2019-03-26T09:28:21.313Z,99.90
2019-03-26T09:31:45.289Z,99.90
2019-03-26T09:35:10.110Z,99.90
2019-03-26T09:38:39.116Z,99.90
2019-03-26T09:42:00.454Z,99.90
2019-03-26T09:45:24.420Z,99.90
2019-03-26T09:49:13.332Z,99.90
2019-03-26T09:52:40.244Z,99.90
2019-03-26T09:56:04.806Z,99.90
2019-03-26T09:59:28.898Z,99.90
2019-03-26T10:02:53.325Z,99.90
2019-03-26T10:06:23.257Z,99.90
2019-03-26T10:09:44.457Z,99.90
2019-03-26T10:13:08.387Z,99.90
2019-03-26T10:16:32.373Z,99.90
2019-03-26T10:19:56.355Z,99.90
2019-03-26T10:23:20.885Z,99.90
2019-03-26T10:26:44.806Z,99.90
2019-03-26T10:30:10.191Z,99.90
2019-03-26T10:33:34.136Z,99.90
2019-03-26T10:36:58.345Z,99.90
2019-03-26T10:40:31.142Z,99.90
2019-03-26T10:43:55.046Z,99.90
2019-03-26T10:47:19.621Z,99.90
2019-03-26T10:50:43.618Z,99.90
2019-03-26T10:54:07.999Z,99.90
2019-03-26T10:57:32.055Z,99.90
2019-03-26T11:00:56.619Z,99.90
2019-03-26T11:04:20.660Z,99.90
2019-03-26T11:07:44.950Z,99.90
2019-03-26T11:11:08.832Z,96.70
2019-03-26T11:14:32.814Z,96.00
2019-03-26T11:17:56.749Z,93.30
2019-03-26T11:21:20.761Z,92.30
2019-03-26T11:24:44.800Z,92.20
2019-03-26T11:28:08.797Z,91.20
2019-03-26T11:31:32.747Z,94.20
2019-03-26T11:34:56.766Z,99.20
2019-03-26T11:38:20.803Z,99.90
2019-03-26T11:41:44.722Z,99.90
2019-03-26T11:45:09.964Z,99.90
2019-03-26T11:48:34.035Z,99.90
2019-03-26T11:51:58.010Z,99.90
2019-03-26T11:55:22.099Z,99.90
2019-03-26T11:58:47.202Z,99.90
2019-03-26T12:02:11.772Z,99.90
2019-03-26T12:05:36.851Z,99.90
2019-03-26T12:09:00.853Z,99.90
2019-03-26T12:12:24.730Z,99.90
2019-03-26T12:15:48.642Z,99.90
2019-03-26T12:19:12.594Z,99.90
2019-03-26T12:22:36.527Z,99.90
2019-03-26T12:26:00.428Z,99.90
2019-03-26T12:29:24.337Z,99.90
2019-03-26T12:32:48.252Z,99.90
2019-03-26T12:36:12.179Z,99.90
2019-03-26T12:39:36.544Z,99.90
2019-03-26T12:43:00.811Z,99.90
2019-03-26T12:46:24.712Z,99.90
2019-03-26T12:49:49.914Z,99.90
2019-03-26T12:53:13.880Z,99.90
2019-03-26T12:56:37.836Z,99.90
2019-03-26T13:00:01.745Z,99.90
2019-03-26T13:03:27.000Z,99.90
2019-03-26T13:06:50.918Z,99.90
2019-03-26T13:10:15.225Z,99.90
2019-03-26T13:13:39.109Z,99.90
2019-03-26T13:17:03.017Z,99.90
2019-03-26T13:20:26.957Z,99.90
2019-03-26T13:23:50.843Z,99.90
2019-03-26T13:27:14.796Z,99.90
2019-03-26T13:30:39.870Z,99.90
2019-03-26T13:34:03.779Z,99.90
2019-03-26T13:37:27.808Z,99.90
2019-03-26T13:40:51.761Z,99.90
2019-03-26T13:44:15.685Z,99.90
2019-03-26T13:47:39.608Z,99.90
2019-03-26T13:51:03.502Z,99.90
2019-03-26T13:54:27.428Z,99.90
2019-03-26T13:57:51.328Z,99.90
2019-03-26T14:01:15.408Z,99.90
2019-03-26T14:04:39.691Z,99.90
2019-03-26T14:08:03.959Z,99.90
2019-03-26T14:11:27.855Z,99.90
2019-03-26T14:14:52.483Z,99.90
2019-03-26T14:18:16.455Z,99.90
2019-03-26T14:21:40.407Z,99.90
2019-03-26T14:25:04.783Z,99.90
2019-03-26T14:28:28.750Z,99.90
2019-03-26T14:31:52.736Z,99.90
2019-03-26T14:35:16.791Z,99.90
2019-03-26T14:38:40.844Z,99.90
2019-03-26T14:42:05.068Z,99.90
2019-03-26T14:45:29.197Z,99.90
2019-03-26T14:48:53.259Z,99.90
2019-03-26T14:52:17.632Z,99.90
2019-03-26T14:55:41.666Z,99.90
2019-03-26T14:59:05.697Z,99.90
2019-03-26T15:02:29.813Z,99.90
2019-03-26T15:05:53.695Z,99.90
2019-03-26T15:09:17.766Z,99.90
2019-03-26T15:12:41.619Z,99.90
2019-03-26T15:16:05.503Z,99.90
2019-03-26T15:19:29.414Z,99.90
2019-03-26T15:22:53.371Z,99.90
2019-03-26T15:26:17.364Z,99.90
2019-03-26T15:29:41.609Z,99.90
2019-03-26T15:33:06.002Z,99.90
2019-03-26T15:36:30.028Z,99.90
2019-03-26T15:39:54.091Z,99.90
2019-03-26T15:43:19.510Z,99.90
2019-03-26T15:46:43.428Z,99.90
2019-03-26T15:50:08.263Z,99.90
2019-03-26T15:53:32.210Z,99.90
2019-03-26T15:56:56.223Z,99.90
2019-03-26T16:00:25.949Z,99.90
2019-03-26T16:03:49.861Z,99.90
2019-03-26T16:07:13.863Z,99.90
2019-03-26T16:10:37.955Z,99.90
2019-03-26T16:14:02.197Z,99.90
2019-03-26T16:17:26.211Z,99.90
2019-03-26T16:20:50.207Z,99.90
2019-03-26T16:24:14.082Z,99.90
2019-03-26T16:27:38.101Z,99.90
2019-03-26T16:31:02.019Z,99.90
2019-03-26T16:34:26.262Z,99.90
2019-03-26T16:37:51.266Z,99.90
2019-03-26T16:41:15.213Z,99.90
2019-03-26T16:44:39.128Z,99.90
2019-03-26T16:48:03.257Z,99.90
2019-03-26T16:51:27.191Z,99.90
2019-03-26T16:54:51.207Z,99.90
2019-03-26T16:58:15.446Z,99.90
2019-03-26T17:01:39.312Z,99.90
2019-03-26T17:05:03.410Z,99.90
2019-03-26T17:08:27.461Z,99.90
2019-03-26T17:12:03.416Z,99.90
2019-03-26T17:15:23.893Z,99.90
2019-03-26T17:18:48.110Z,99.90
2019-03-26T17:22:17.987Z,99.90
2019-03-26T17:25:42.609Z,99.90
2019-03-26T17:29:10.428Z,99.90
2019-03-26T17:32:34.341Z,99.90
2019-03-26T17:35:58.233Z,99.90
2019-03-26T17:39:22.240Z,99.90
2019-03-26T17:42:48.624Z,99.90
2019-03-26T17:46:12.516Z,99.90
2019-03-26T17:49:37.028Z,99.90
2019-03-26T17:53:00.961Z,99.90
2019-03-26T17:56:25.374Z,99.90
2019-03-26T17:59:49.729Z,99.90
2019-03-26T18:03:25.658Z,99.90
2019-03-26T18:06:40.058Z,99.90
2019-03-26T18:10:04.551Z,99.90
2019-03-26T18:13:28.477Z,99.90
2019-03-26T18:16:52.393Z,99.90
2019-03-26T18:20:16.813Z,99.90
2019-03-26T18:23:40.726Z,99.90
2019-03-26T18:27:04.643Z,99.90
2019-03-26T18:30:28.665Z,99.90
2019-03-26T18:33:52.756Z,99.90
2019-03-26T18:37:17.177Z,99.90
2019-03-26T18:40:41.236Z,99.90
2019-03-26T18:44:05.281Z,99.90
2019-03-26T18:47:29.293Z,99.90
2019-03-26T18:50:53.338Z,99.90
2019-03-26T18:54:17.312Z,99.90
2019-03-26T18:57:41.336Z,99.90
2019-03-26T19:01:05.368Z,99.90
2019-03-26T19:04:32.710Z,99.90
2019-03-26T19:07:56.817Z,99.90
2019-03-26T19:11:20.884Z,99.90
2019-03-26T19:14:47.254Z,99.90
2019-03-26T19:18:11.268Z,99.90
2019-03-26T19:21:35.706Z,99.90
2019-03-26T19:25:00.393Z,99.90
2019-03-26T19:28:26.965Z,99.90
2019-03-26T19:31:52.345Z,99.90
2019-03-26T19:35:16.260Z,99.90
2019-03-26T19:38:40.458Z,99.90
2019-03-26T19:42:04.610Z,99.90
2019-03-26T19:45:28.659Z,99.90
2019-03-26T19:48:52.918Z,99.90
2019-03-26T19:52:19.156Z,99.90
2019-03-26T19:55:43.739Z,99.90
2019-03-26T19:59:09.094Z,99.90
2019-03-26T20:02:33.336Z,99.90
2019-03-26T20:05:58.063Z,99.90
2019-03-26T20:09:22.970Z,99.90
2019-03-26T20:12:47.006Z,99.90
2019-03-26T20:16:12.381Z,99.90
2019-03-26T20:19:37.033Z,99.90
2019-03-26T20:23:01.135Z,99.90
2019-03-26T20:26:25.517Z,99.90
2019-03-26T20:29:50.503Z,99.90
2019-03-26T20:33:15.105Z,99.90
2019-03-26T20:36:39.986Z,99.90
2019-03-26T20:40:06.674Z,99.90
2019-03-26T20:43:37.297Z,99.90
2019-03-26T20:46:57.209Z,99.90
2019-03-26T20:50:21.429Z,99.90
2019-03-26T20:53:47.912Z,99.90
2019-03-26T20:57:12.875Z,99.90
2019-03-26T21:00:40.382Z,99.90
2019-03-26T21:04:05.425Z,99.90
2019-03-26T21:07:29.705Z,99.90
2019-03-26T21:10:53.762Z,99.90
2019-03-26T21:14:19.549Z,99.90
2019-03-26T21:17:43.857Z,99.90
2019-03-26T21:21:07.878Z,99.90
2019-03-26T21:24:32.193Z,99.90
2019-03-26T21:27:56.089Z,99.90
2019-03-26T21:31:20.121Z,99.90
2019-03-26T21:34:44.276Z,99.90
2019-03-26T21:38:08.682Z,99.90
2019-03-26T21:41:34.055Z,99.90
2019-03-26T21:44:57.917Z,99.90
2019-03-26T21:48:21.830Z,99.90
2019-03-26T21:51:45.702Z,99.90
2019-03-26T21:55:13.185Z,99.90
2019-03-26T21:58:35.901Z,99.90
2019-03-26T22:01:59.891Z,99.90
2019-03-26T22:05:23.914Z,99.90
2019-03-26T22:08:47.992Z,99.90
2019-03-26T22:12:12.425Z,99.90
2019-03-26T22:15:37.476Z,99.90
2019-03-26T22:19:01.597Z,99.90
2019-03-26T22:22:25.468Z,99.90
2019-03-26T22:25:49.466Z,99.90
2019-03-26T22:29:13.447Z,99.90
2019-03-26T22:32:37.530Z,99.90
2019-03-26T22:36:01.422Z,99.90
2019-03-26T22:39:25.296Z,99.90
2019-03-26T22:42:49.203Z,99.90
2019-03-26T22:46:13.114Z,99.90
2019-03-26T22:49:37.066Z,99.90
2019-03-26T22:53:00.974Z,99.90
2019-03-26T22:56:25.035Z,99.90
2019-03-26T22:59:48.963Z,99.90
2019-03-26T23:03:12.961Z,99.90
2019-03-26T23:06:36.854Z,99.90
2019-03-26T23:10:00.877Z,99.90
2019-03-26T23:13:24.934Z,99.90
2019-03-26T23:16:48.952Z,99.90
2019-03-26T23:20:12.878Z,99.90
2019-03-26T23:23:36.948Z,99.90
2019-03-26T23:27:00.872Z,99.90
2019-03-26T23:30:24.848Z,99.90
2019-03-26T23:33:48.950Z,99.90
2019-03-26T23:37:12.989Z,99.90
2019-03-26T23:40:37.223Z,99.90
2019-03-26T23:44:01.127Z,99.90
2019-03-26T23:47:25.050Z,99.90
2019-03-26T23:50:50.373Z,99.90
2019-03-26T23:54:14.670Z,99.90
2019-03-26T23:57:38.635Z,99.90
